Forside
METAR-TAF:

METAR-TAF

Lufthavne :

Woomera, Australien

Breddekreds: 31-08S, længdekreds: 136-49E, højde: 165 m

Aktuelle vejr

Denne rapport blev lavet for 44 minutter siden, kl. 00:00 UTC
Vind 17 kt fra syd
Temperatur 16°C
Fugtighed 48%
Tryk 1021 hPa
Sigt 10 km eller mere
Spredte skyer i en højde af 3700 ft

METAR: YPWR 200000Z AUTO 19017KT 9999 // SCT037 16/05 Q1021

Tid: 11:14 (00:44 UTC)

Vejrudsigter

Denne rapport blev lavet for 1 time og 57 minutter siden, kl. 22:47 UTC
Foreløbig gælder fra 20 på 00 UTC til 20 på 18 UTC
Vind 14 kt fra syd
Sigt 10 km eller mere
ingen skyer under 1500m og ingen cumulonimbus
Fra 20 på 0800 UTC
Vind 8 kt fra syd
Sigt 10 km eller mere
ingen skyer under 1500m og ingen cumulonimbus
Fra 20 på 1100 UTC
Vind 12 kt fra sydøst
Sigt 10 km eller mere
ingen skyer under 1500m og ingen cumulonimbus

TAF: YPWR 192247Z 2000/2018 18014KT CAVOK FM200800 18008KT CAVOK FM201100 13012KT CAVOK

Vejrobservationer og prognoser fra mere end 4000 lufthavne (METAR og TAF).

De gule og røde prikker repræsenterer de meteorologiske stationer.

Flyt musen over at se navnet på stationen.

Så klik over at se vejr observationer og prognoser.

At skifte det kort: Klik på de grønne knapper med et sort kors for at zoome ind; på den grønne knap med en bindestreg for at zoome ud; eller på de grønne pile for tilstødende kort.


METAR-TAF: